sensor_id;sensor_type;location;lat;lon;timestamp;P1;durP1;ratioP1;P2;durP2;ratioP2
65825;SDS011;52586;-43.152;172.732;2023-03-31T00:00:17;2.03;;;1.30;;
65825;SDS011;52586;-43.152;172.732;2023-03-31T00:02:48;2.75;;;1.23;;
65825;SDS011;52586;-43.152;172.732;2023-03-31T00:05:21;2.88;;;1.60;;
65825;SDS011;52586;-43.152;172.732;2023-03-31T00:07:52;3.28;;;1.40;;
65825;SDS011;52586;-43.152;172.732;2023-03-31T00:10:26;3.35;;;1.55;;
65825;SDS011;52586;-43.152;172.732;2023-03-31T00:12:57;1.98;;;0.90;;
65825;SDS011;52586;-43.152;172.732;2023-03-31T00:15:30;2.53;;;1.27;;
65825;SDS011;52586;-43.152;172.732;2023-03-31T00:18:00;1.70;;;1.40;;
65825;SDS011;52586;-43.152;172.732;2023-03-31T00:20:31;2.08;;;1.23;;
65825;SDS011;52586;-43.152;172.732;2023-03-31T00:23:03;1.80;;;1.20;;
65825;SDS011;52586;-43.152;172.732;2023-03-31T00:25:38;2.47;;;1.40;;
65825;SDS011;52586;-43.152;172.732;2023-03-31T00:28:09;1.70;;;1.17;;
65825;SDS011;52586;-43.152;172.732;2023-03-31T00:30:41;2.05;;;1.40;;
65825;SDS011;52586;-43.152;172.732;2023-03-31T00:33:12;2.63;;;1.42;;
65825;SDS011;52586;-43.152;172.732;2023-03-31T00:35:43;2.83;;;1.27;;
65825;SDS011;52586;-43.152;172.732;2023-03-31T00:38:18;2.17;;;1.10;;
65825;SDS011;52586;-43.152;172.732;2023-03-31T00:40:49;2.47;;;1.25;;
65825;SDS011;52586;-43.152;172.732;2023-03-31T00:43:29;1.00;;;0.88;;
65825;SDS011;52586;-43.152;172.732;2023-03-31T00:46:06;2.45;;;1.20;;
65825;SDS011;52586;-43.152;172.732;2023-03-31T00:48:44;1.85;;;1.15;;
65825;SDS011;52586;-43.152;172.732;2023-03-31T00:51:18;2.88;;;1.55;;
65825;SDS011;52586;-43.152;172.732;2023-03-31T00:53:50;2.05;;;1.13;;
65825;SDS011;52586;-43.152;172.732;2023-03-31T00:56:24;2.78;;;1.58;;
65825;SDS011;52586;-43.152;172.732;2023-03-31T00:59:00;2.10;;;1.38;;
65825;SDS011;52586;-43.152;172.732;2023-03-31T01:01:34;5.18;;;1.38;;
65825;SDS011;52586;-43.152;172.732;2023-03-31T01:04:08;2.03;;;1.00;;
65825;SDS011;52586;-43.152;172.732;2023-03-31T01:06:43;2.83;;;1.20;;
65825;SDS011;52586;-43.152;172.732;2023-03-31T01:09:22;2.15;;;1.00;;
65825;SDS011;52586;-43.152;172.732;2023-03-31T01:11:55;2.72;;;1.10;;
65825;SDS011;52586;-43.152;172.732;2023-03-31T01:14:26;1.80;;;1.10;;
65825;SDS011;52586;-43.152;172.732;2023-03-31T01:17:00;3.08;;;1.17;;
65825;SDS011;52586;-43.152;172.732;2023-03-31T01:19:41;1.48;;;0.90;;
65825;SDS011;52586;-43.152;172.732;2023-03-31T01:28:53;1.85;;;0.95;;
65825;SDS011;52586;-43.152;172.732;2023-03-31T01:31:36;2.30;;;1.00;;
65825;SDS011;52586;-43.152;172.732;2023-03-31T01:37:54;2.15;;;1.08;;
65825;SDS011;52586;-43.152;172.732;2023-03-31T01:40:59;1.85;;;1.10;;
65825;SDS011;52586;-43.152;172.732;2023-03-31T01:43:50;1.83;;;1.15;;
65825;SDS011;52586;-43.152;172.732;2023-03-31T01:46:27;1.58;;;0.90;;
65825;SDS011;52586;-43.152;172.732;2023-03-31T01:49:03;1.17;;;0.88;;
65825;SDS011;52586;-43.152;172.732;2023-03-31T01:51:44;1.85;;;1.15;;
65825;SDS011;52586;-43.152;172.732;2023-03-31T01:54:19;2.05;;;1.00;;
65825;SDS011;52586;-43.152;172.732;2023-03-31T01:56:54;2.55;;;1.08;;
65825;SDS011;52586;-43.152;172.732;2023-03-31T01:59:28;1.45;;;1.00;;
65825;SDS011;52586;-43.152;172.732;2023-03-31T02:02:02;1.00;;;0.85;;
65825;SDS011;52586;-43.152;172.732;2023-03-31T02:04:37;1.92;;;1.30;;
65825;SDS011;52586;-43.152;172.732;2023-03-31T02:07:11;1.98;;;1.10;;
65825;SDS011;52586;-43.152;172.732;2023-03-31T02:09:45;2.80;;;1.17;;
65825;SDS011;52586;-43.152;172.732;2023-03-31T02:12:20;2.35;;;1.15;;
65825;SDS011;52586;-43.152;172.732;2023-03-31T02:14:54;3.65;;;1.45;;
65825;SDS011;52586;-43.152;172.732;2023-03-31T02:17:26;3.42;;;1.20;;
65825;SDS011;52586;-43.152;172.732;2023-03-31T02:20:03;2.47;;;1.30;;
65825;SDS011;52586;-43.152;172.732;2023-03-31T02:22:36;1.75;;;1.10;;
65825;SDS011;52586;-43.152;172.732;2023-03-31T02:25:10;2.60;;;1.10;;
65825;SDS011;52586;-43.152;172.732;2023-03-31T02:27:48;1.73;;;1.13;;
65825;SDS011;52586;-43.152;172.732;2023-03-31T02:30:22;2.78;;;1.23;;
65825;SDS011;52586;-43.152;172.732;2023-03-31T02:32:57;1.73;;;1.10;;
65825;SDS011;52586;-43.152;172.732;2023-03-31T02:35:29;1.73;;;1.10;;
65825;SDS011;52586;-43.152;172.732;2023-03-31T02:38:01;2.03;;;1.23;;
65825;SDS011;52586;-43.152;172.732;2023-03-31T02:40:33;2.95;;;1.23;;
65825;SDS011;52586;-43.152;172.732;2023-03-31T02:43:06;2.30;;;1.35;;
65825;SDS011;52586;-43.152;172.732;2023-03-31T02:45:40;2.03;;;1.10;;
65825;SDS011;52586;-43.152;172.732;2023-03-31T02:48:14;1.42;;;1.05;;
65825;SDS011;52586;-43.152;172.732;2023-03-31T02:50:57;3.95;;;1.52;;
65825;SDS011;52586;-43.152;172.732;2023-03-31T02:53:46;1.70;;;1.05;;
65825;SDS011;52586;-43.152;172.732;2023-03-31T02:56:34;2.15;;;1.20;;
65825;SDS011;52586;-43.152;172.732;2023-03-31T02:59:22;3.90;;;1.23;;
65825;SDS011;52586;-43.152;172.732;2023-03-31T03:02:07;2.60;;;1.25;;
65825;SDS011;52586;-43.152;172.732;2023-03-31T03:05:00;3.60;;;1.25;;
65825;SDS011;52586;-43.152;172.732;2023-03-31T03:07:51;3.55;;;1.63;;
65825;SDS011;52586;-43.152;172.732;2023-03-31T03:10:34;3.10;;;1.40;;
65825;SDS011;52586;-43.152;172.732;2023-03-31T03:13:15;3.47;;;1.50;;
65825;SDS011;52586;-43.152;172.732;2023-03-31T03:15:53;1.70;;;1.20;;
65825;SDS011;52586;-43.152;172.732;2023-03-31T03:18:28;2.75;;;1.30;;
65825;SDS011;52586;-43.152;172.732;2023-03-31T03:20:59;3.53;;;1.50;;
65825;SDS011;52586;-43.152;172.732;2023-03-31T03:23:30;2.40;;;1.40;;
65825;SDS011;52586;-43.152;172.732;2023-03-31T03:26:00;3.47;;;1.50;;
65825;SDS011;52586;-43.152;172.732;2023-03-31T03:28:31;3.35;;;1.38;;
65825;SDS011;52586;-43.152;172.732;2023-03-31T03:31:03;2.78;;;1.20;;
65825;SDS011;52586;-43.152;172.732;2023-03-31T03:33:34;3.92;;;1.45;;
65825;SDS011;52586;-43.152;172.732;2023-03-31T03:36:05;2.70;;;1.23;;
65825;SDS011;52586;-43.152;172.732;2023-03-31T03:38:36;2.75;;;1.40;;
65825;SDS011;52586;-43.152;172.732;2023-03-31T03:41:07;2.72;;;1.25;;
65825;SDS011;52586;-43.152;172.732;2023-03-31T03:43:37;3.03;;;1.70;;
65825;SDS011;52586;-43.152;172.732;2023-03-31T03:46:10;3.28;;;1.50;;
65825;SDS011;52586;-43.152;172.732;2023-03-31T03:48:40;3.20;;;1.48;;
65825;SDS011;52586;-43.152;172.732;2023-03-31T03:51:11;2.35;;;1.38;;
65825;SDS011;52586;-43.152;172.732;2023-03-31T03:53:42;1.98;;;1.23;;
65825;SDS011;52586;-43.152;172.732;2023-03-31T03:56:12;4.28;;;1.30;;
65825;SDS011;52586;-43.152;172.732;2023-03-31T03:58:43;1.85;;;0.98;;
65825;SDS011;52586;-43.152;172.732;2023-03-31T04:01:16;2.38;;;1.10;;
65825;SDS011;52586;-43.152;172.732;2023-03-31T04:03:46;2.50;;;1.25;;
65825;SDS011;52586;-43.152;172.732;2023-03-31T04:06:17;3.00;;;1.38;;
65825;SDS011;52586;-43.152;172.732;2023-03-31T04:08:48;1.67;;;1.13;;
65825;SDS011;52586;-43.152;172.732;2023-03-31T04:11:18;2.33;;;1.20;;
65825;SDS011;52586;-43.152;172.732;2023-03-31T04:13:49;3.60;;;1.23;;
65825;SDS011;52586;-43.152;172.732;2023-03-31T04:16:22;4.07;;;1.40;;
65825;SDS011;52586;-43.152;172.732;2023-03-31T04:18:52;2.42;;;1.13;;
65825;SDS011;52586;-43.152;172.732;2023-03-31T04:21:24;3.15;;;1.38;;
65825;SDS011;52586;-43.152;172.732;2023-03-31T04:23:55;2.85;;;1.27;;
65825;SDS011;52586;-43.152;172.732;2023-03-31T04:26:27;2.80;;;1.20;;
65825;SDS011;52586;-43.152;172.732;2023-03-31T04:29:04;1.45;;;1.23;;
65825;SDS011;52586;-43.152;172.732;2023-03-31T04:31:37;2.00;;;1.30;;
65825;SDS011;52586;-43.152;172.732;2023-03-31T04:34:08;2.85;;;1.17;;
65825;SDS011;52586;-43.152;172.732;2023-03-31T04:36:40;2.60;;;1.30;;
65825;SDS011;52586;-43.152;172.732;2023-03-31T04:39:13;2.83;;;1.20;;
65825;SDS011;52586;-43.152;172.732;2023-03-31T04:41:49;1.85;;;1.00;;
65825;SDS011;52586;-43.152;172.732;2023-03-31T04:44:20;3.53;;;1.10;;
65825;SDS011;52586;-43.152;172.732;2023-03-31T04:46:52;2.80;;;1.10;;
65825;SDS011;52586;-43.152;172.732;2023-03-31T04:49:24;2.15;;;1.30;;
65825;SDS011;52586;-43.152;172.732;2023-03-31T04:51:54;3.88;;;1.50;;
65825;SDS011;52586;-43.152;172.732;2023-03-31T04:54:25;2.47;;;1.35;;
65825;SDS011;52586;-43.152;172.732;2023-03-31T04:56:56;2.50;;;1.30;;
65825;SDS011;52586;-43.152;172.732;2023-03-31T04:59:26;2.30;;;1.02;;
65825;SDS011;52586;-43.152;172.732;2023-03-31T05:01:59;2.67;;;1.13;;
65825;SDS011;52586;-43.152;172.732;2023-03-31T05:04:29;2.30;;;1.20;;
65825;SDS011;52586;-43.152;172.732;2023-03-31T05:07:00;2.67;;;1.30;;
65825;SDS011;52586;-43.152;172.732;2023-03-31T05:09:31;1.75;;;1.20;;
65825;SDS011;52586;-43.152;172.732;2023-03-31T05:12:02;2.53;;;1.42;;
65825;SDS011;52586;-43.152;172.732;2023-03-31T05:14:32;2.97;;;1.08;;
65825;SDS011;52586;-43.152;172.732;2023-03-31T05:17:05;2.70;;;1.30;;
65825;SDS011;52586;-43.152;172.732;2023-03-31T05:19:36;2.28;;;1.40;;
65825;SDS011;52586;-43.152;172.732;2023-03-31T05:22:07;5.18;;;1.88;;
65825;SDS011;52586;-43.152;172.732;2023-03-31T05:24:37;3.95;;;1.58;;
65825;SDS011;52586;-43.152;172.732;2023-03-31T05:27:08;4.15;;;1.52;;
65825;SDS011;52586;-43.152;172.732;2023-03-31T05:29:39;4.88;;;1.77;;
65825;SDS011;52586;-43.152;172.732;2023-03-31T05:32:11;3.17;;;1.33;;
65825;SDS011;52586;-43.152;172.732;2023-03-31T05:34:42;5.93;;;1.60;;
65825;SDS011;52586;-43.152;172.732;2023-03-31T05:37:12;3.65;;;1.92;;
65825;SDS011;52586;-43.152;172.732;2023-03-31T05:39:43;4.28;;;1.50;;
65825;SDS011;52586;-43.152;172.732;2023-03-31T05:42:14;4.30;;;1.45;;
65825;SDS011;52586;-43.152;172.732;2023-03-31T05:44:44;3.92;;;1.50;;
65825;SDS011;52586;-43.152;172.732;2023-03-31T05:47:17;2.85;;;1.50;;
65825;SDS011;52586;-43.152;172.732;2023-03-31T05:49:48;6.00;;;1.80;;
65825;SDS011;52586;-43.152;172.732;2023-03-31T05:52:21;3.20;;;1.52;;
65825;SDS011;52586;-43.152;172.732;2023-03-31T05:54:52;4.00;;;1.60;;
65825;SDS011;52586;-43.152;172.732;2023-03-31T05:57:22;3.70;;;1.40;;
65825;SDS011;52586;-43.152;172.732;2023-03-31T05:59:53;4.35;;;1.55;;
65825;SDS011;52586;-43.152;172.732;2023-03-31T06:02:25;5.70;;;1.60;;
65825;SDS011;52586;-43.152;172.732;2023-03-31T06:04:56;4.05;;;1.75;;
65825;SDS011;52586;-43.152;172.732;2023-03-31T06:07:27;3.45;;;1.35;;
65825;SDS011;52586;-43.152;172.732;2023-03-31T06:09:58;2.67;;;1.10;;
65825;SDS011;52586;-43.152;172.732;2023-03-31T06:12:28;3.53;;;1.75;;
65825;SDS011;52586;-43.152;172.732;2023-03-31T06:15:01;4.35;;;1.60;;
65825;SDS011;52586;-43.152;172.732;2023-03-31T06:17:34;3.50;;;1.17;;
65825;SDS011;52586;-43.152;172.732;2023-03-31T06:20:05;3.60;;;1.52;;
65825;SDS011;52586;-43.152;172.732;2023-03-31T06:22:36;3.28;;;1.70;;
65825;SDS011;52586;-43.152;172.732;2023-03-31T06:25:07;5.28;;;2.15;;
65825;SDS011;52586;-43.152;172.732;2023-03-31T06:27:38;2.15;;;1.20;;
65825;SDS011;52586;-43.152;172.732;2023-03-31T06:30:08;2.85;;;1.55;;
65825;SDS011;52586;-43.152;172.732;2023-03-31T06:32:41;4.03;;;1.35;;
65825;SDS011;52586;-43.152;172.732;2023-03-31T06:35:12;2.20;;;1.30;;
65825;SDS011;52586;-43.152;172.732;2023-03-31T06:37:43;3.05;;;1.40;;
65825;SDS011;52586;-43.152;172.732;2023-03-31T06:40:13;3.65;;;1.55;;
65825;SDS011;52586;-43.152;172.732;2023-03-31T06:42:45;2.20;;;1.30;;
65825;SDS011;52586;-43.152;172.732;2023-03-31T06:45:15;2.70;;;1.35;;
65825;SDS011;52586;-43.152;172.732;2023-03-31T06:47:48;2.40;;;1.27;;
65825;SDS011;52586;-43.152;172.732;2023-03-31T06:50:19;3.45;;;1.50;;
65825;SDS011;52586;-43.152;172.732;2023-03-31T06:52:49;2.25;;;1.38;;
65825;SDS011;52586;-43.152;172.732;2023-03-31T06:55:20;4.63;;;1.70;;
65825;SDS011;52586;-43.152;172.732;2023-03-31T06:57:51;2.13;;;1.20;;
65825;SDS011;52586;-43.152;172.732;2023-03-31T07:00:21;2.85;;;1.48;;
65825;SDS011;52586;-43.152;172.732;2023-03-31T07:02:54;2.25;;;1.17;;
65825;SDS011;52586;-43.152;172.732;2023-03-31T07:05:25;2.58;;;1.35;;
65825;SDS011;52586;-43.152;172.732;2023-03-31T07:07:56;2.75;;;1.25;;
65825;SDS011;52586;-43.152;172.732;2023-03-31T07:10:28;3.15;;;1.40;;
65825;SDS011;52586;-43.152;172.732;2023-03-31T07:12:59;2.58;;;1.17;;
65825;SDS011;52586;-43.152;172.732;2023-03-31T07:15:30;1.75;;;1.08;;
65825;SDS011;52586;-43.152;172.732;2023-03-31T07:18:03;2.90;;;1.40;;
65825;SDS011;52586;-43.152;172.732;2023-03-31T07:20:34;2.65;;;1.30;;
65825;SDS011;52586;-43.152;172.732;2023-03-31T07:23:04;3.03;;;1.60;;
65825;SDS011;52586;-43.152;172.732;2023-03-31T07:25:35;2.20;;;1.00;;
65825;SDS011;52586;-43.152;172.732;2023-03-31T07:28:06;2.85;;;1.50;;
65825;SDS011;52586;-43.152;172.732;2023-03-31T07:30:36;3.50;;;1.42;;
65825;SDS011;52586;-43.152;172.732;2023-03-31T07:33:10;3.35;;;1.30;;
65825;SDS011;52586;-43.152;172.732;2023-03-31T07:35:41;2.35;;;1.48;;
65825;SDS011;52586;-43.152;172.732;2023-03-31T07:38:11;2.55;;;1.77;;
65825;SDS011;52586;-43.152;172.732;2023-03-31T07:40:42;2.88;;;1.30;;
65825;SDS011;52586;-43.152;172.732;2023-03-31T07:43:13;2.40;;;1.30;;
65825;SDS011;52586;-43.152;172.732;2023-03-31T07:45:44;4.45;;;1.45;;
65825;SDS011;52586;-43.152;172.732;2023-03-31T07:48:16;3.58;;;1.60;;
65825;SDS011;52586;-43.152;172.732;2023-03-31T07:50:47;2.75;;;1.50;;
65825;SDS011;52586;-43.152;172.732;2023-03-31T07:53:18;2.78;;;1.10;;
65825;SDS011;52586;-43.152;172.732;2023-03-31T07:55:49;2.97;;;1.40;;
65825;SDS011;52586;-43.152;172.732;2023-03-31T07:58:19;2.35;;;1.20;;
65825;SDS011;52586;-43.152;172.732;2023-03-31T08:00:50;1.55;;;1.10;;
65825;SDS011;52586;-43.152;172.732;2023-03-31T08:03:23;2.35;;;1.30;;
65825;SDS011;52586;-43.152;172.732;2023-03-31T08:05:54;1.85;;;1.30;;
65825;SDS011;52586;-43.152;172.732;2023-03-31T08:08:24;2.10;;;1.17;;
65825;SDS011;52586;-43.152;172.732;2023-03-31T08:10:55;2.50;;;1.30;;
65825;SDS011;52586;-43.152;172.732;2023-03-31T08:13:26;1.67;;;1.00;;
65825;SDS011;52586;-43.152;172.732;2023-03-31T08:15:57;1.75;;;1.10;;
65825;SDS011;52586;-43.152;172.732;2023-03-31T08:18:29;2.20;;;1.30;;
65825;SDS011;52586;-43.152;172.732;2023-03-31T08:21:00;2.33;;;1.40;;
65825;SDS011;52586;-43.152;172.732;2023-03-31T08:23:31;3.30;;;1.70;;
65825;SDS011;52586;-43.152;172.732;2023-03-31T08:26:08;3.10;;;1.45;;
65825;SDS011;52586;-43.152;172.732;2023-03-31T08:28:40;2.40;;;1.10;;
65825;SDS011;52586;-43.152;172.732;2023-03-31T08:31:10;3.28;;;1.45;;
65825;SDS011;52586;-43.152;172.732;2023-03-31T08:33:43;3.30;;;1.65;;
65825;SDS011;52586;-43.152;172.732;2023-03-31T08:36:14;3.40;;;1.27;;
65825;SDS011;52586;-43.152;172.732;2023-03-31T08:38:44;3.78;;;1.50;;
65825;SDS011;52586;-43.152;172.732;2023-03-31T08:41:21;3.47;;;1.38;;
65825;SDS011;52586;-43.152;172.732;2023-03-31T08:44:14;2.47;;;1.40;;
65825;SDS011;52586;-43.152;172.732;2023-03-31T08:46:49;2.40;;;1.58;;
65825;SDS011;52586;-43.152;172.732;2023-03-31T08:49:24;2.47;;;1.23;;
65825;SDS011;52586;-43.152;172.732;2023-03-31T08:51:57;2.08;;;1.40;;
65825;SDS011;52586;-43.152;172.732;2023-03-31T08:54:30;2.30;;;1.50;;
65825;SDS011;52586;-43.152;172.732;2023-03-31T08:57:05;1.92;;;1.10;;
65825;SDS011;52586;-43.152;172.732;2023-03-31T08:59:44;2.17;;;1.20;;
65825;SDS011;52586;-43.152;172.732;2023-03-31T09:02:21;3.47;;;1.23;;
65825;SDS011;52586;-43.152;172.732;2023-03-31T09:05:08;2.42;;;1.27;;
65825;SDS011;52586;-43.152;172.732;2023-03-31T09:07:53;2.92;;;1.45;;
65825;SDS011;52586;-43.152;172.732;2023-03-31T09:10:38;3.00;;;1.40;;
65825;SDS011;52586;-43.152;172.732;2023-03-31T09:13:20;3.42;;;1.30;;
65825;SDS011;52586;-43.152;172.732;2023-03-31T09:16:13;3.78;;;1.15;;
65825;SDS011;52586;-43.152;172.732;2023-03-31T09:18:46;1.60;;;1.50;;
65825;SDS011;52586;-43.152;172.732;2023-03-31T09:21:20;2.58;;;1.27;;
65825;SDS011;52586;-43.152;172.732;2023-03-31T09:23:55;2.50;;;1.40;;
65825;SDS011;52586;-43.152;172.732;2023-03-31T09:26:32;2.67;;;1.50;;
65825;SDS011;52586;-43.152;172.732;2023-03-31T09:29:11;2.72;;;1.38;;
65825;SDS011;52586;-43.152;172.732;2023-03-31T09:31:45;3.03;;;1.65;;
65825;SDS011;52586;-43.152;172.732;2023-03-31T09:34:16;2.10;;;1.50;;
65825;SDS011;52586;-43.152;172.732;2023-03-31T09:36:53;2.25;;;1.10;;
65825;SDS011;52586;-43.152;172.732;2023-03-31T09:39:24;3.80;;;1.60;;
65825;SDS011;52586;-43.152;172.732;2023-03-31T09:41:55;1.67;;;1.15;;
65825;SDS011;52586;-43.152;172.732;2023-03-31T09:44:26;1.50;;;1.02;;
65825;SDS011;52586;-43.152;172.732;2023-03-31T09:47:02;2.25;;;1.30;;
65825;SDS011;52586;-43.152;172.732;2023-03-31T09:49:34;1.95;;;1.20;;
65825;SDS011;52586;-43.152;172.732;2023-03-31T09:52:11;1.77;;;1.30;;
65825;SDS011;52586;-43.152;172.732;2023-03-31T09:54:55;2.53;;;1.20;;
65825;SDS011;52586;-43.152;172.732;2023-03-31T09:57:29;2.38;;;1.50;;
65825;SDS011;52586;-43.152;172.732;2023-03-31T10:00:02;2.90;;;1.45;;
65825;SDS011;52586;-43.152;172.732;2023-03-31T10:02:42;3.50;;;1.70;;
65825;SDS011;52586;-43.152;172.732;2023-03-31T10:05:25;2.53;;;1.48;;
65825;SDS011;52586;-43.152;172.732;2023-03-31T10:08:22;1.70;;;1.20;;
65825;SDS011;52586;-43.152;172.732;2023-03-31T10:10:57;2.30;;;1.20;;
65825;SDS011;52586;-43.152;172.732;2023-03-31T10:13:39;2.85;;;1.42;;
65825;SDS011;52586;-43.152;172.732;2023-03-31T10:16:14;3.72;;;1.50;;
65825;SDS011;52586;-43.152;172.732;2023-03-31T10:18:50;3.05;;;1.50;;
65825;SDS011;52586;-43.152;172.732;2023-03-31T10:21:22;2.60;;;1.75;;
65825;SDS011;52586;-43.152;172.732;2023-03-31T10:23:56;2.78;;;1.35;;
65825;SDS011;52586;-43.152;172.732;2023-03-31T10:26:29;2.25;;;1.30;;
65825;SDS011;52586;-43.152;172.732;2023-03-31T10:29:00;2.60;;;1.38;;
65825;SDS011;52586;-43.152;172.732;2023-03-31T10:31:38;1.67;;;1.23;;
65825;SDS011;52586;-43.152;172.732;2023-03-31T10:34:11;2.28;;;1.30;;
65825;SDS011;52586;-43.152;172.732;2023-03-31T10:36:45;1.92;;;1.27;;
65825;SDS011;52586;-43.152;172.732;2023-03-31T10:39:19;3.08;;;1.48;;
65825;SDS011;52586;-43.152;172.732;2023-03-31T10:41:57;1.98;;;1.20;;
65825;SDS011;52586;-43.152;172.732;2023-03-31T10:44:32;2.28;;;1.20;;
65825;SDS011;52586;-43.152;172.732;2023-03-31T10:47:05;1.95;;;1.20;;
65825;SDS011;52586;-43.152;172.732;2023-03-31T10:49:47;1.63;;;1.40;;
65825;SDS011;52586;-43.152;172.732;2023-03-31T10:52:20;2.83;;;1.30;;
65825;SDS011;52586;-43.152;172.732;2023-03-31T10:54:54;1.98;;;1.27;;
65825;SDS011;52586;-43.152;172.732;2023-03-31T10:57:29;1.73;;;1.17;;
65825;SDS011;52586;-43.152;172.732;2023-03-31T11:00:11;2.17;;;1.15;;
65825;SDS011;52586;-43.152;172.732;2023-03-31T11:05:57;1.58;;;1.35;;
65825;SDS011;52586;-43.152;172.732;2023-03-31T11:08:36;2.85;;;1.50;;
65825;SDS011;52586;-43.152;172.732;2023-03-31T11:11:24;2.22;;;1.20;;
65825;SDS011;52586;-43.152;172.732;2023-03-31T11:14:28;2.13;;;1.33;;
65825;SDS011;52586;-43.152;172.732;2023-03-31T11:17:11;1.50;;;1.20;;
65825;SDS011;52586;-43.152;172.732;2023-03-31T11:19:56;2.65;;;1.20;;
65825;SDS011;52586;-43.152;172.732;2023-03-31T11:22:40;2.42;;;1.48;;
65825;SDS011;52586;-43.152;172.732;2023-03-31T11:25:19;2.15;;;1.10;;
65825;SDS011;52586;-43.152;172.732;2023-03-31T11:30:56;2.35;;;1.52;;
65825;SDS011;52586;-43.152;172.732;2023-03-31T11:33:39;1.65;;;1.30;;
65825;SDS011;52586;-43.152;172.732;2023-03-31T11:36:25;1.20;;;1.10;;
65825;SDS011;52586;-43.152;172.732;2023-03-31T11:39:15;2.63;;;1.17;;
65825;SDS011;52586;-43.152;172.732;2023-03-31T11:41:56;1.73;;;0.90;;
65825;SDS011;52586;-43.152;172.732;2023-03-31T11:44:33;2.63;;;1.02;;
65825;SDS011;52586;-43.152;172.732;2023-03-31T11:47:09;1.70;;;1.10;;
65825;SDS011;52586;-43.152;172.732;2023-03-31T11:49:45;1.80;;;1.10;;
65825;SDS011;52586;-43.152;172.732;2023-03-31T11:52:21;1.63;;;1.10;;
65825;SDS011;52586;-43.152;172.732;2023-03-31T11:54:57;1.58;;;1.13;;
65825;SDS011;52586;-43.152;172.732;2023-03-31T11:57:31;2.30;;;1.40;;
65825;SDS011;52586;-43.152;172.732;2023-03-31T12:00:08;2.95;;;2.00;;
65825;SDS011;52586;-43.152;172.732;2023-03-31T12:02:45;7.32;;;1.55;;
65825;SDS011;52586;-43.152;172.732;2023-03-31T12:05:20;5.07;;;1.60;;
65825;SDS011;52586;-43.152;172.732;2023-03-31T12:07:54;3.60;;;1.40;;
65825;SDS011;52586;-43.152;172.732;2023-03-31T12:10:31;2.63;;;1.50;;
65825;SDS011;52586;-43.152;172.732;2023-03-31T12:13:05;3.15;;;1.42;;
65825;SDS011;52586;-43.152;172.732;2023-03-31T12:15:57;4.65;;;1.58;;
65825;SDS011;52586;-43.152;172.732;2023-03-31T12:18:33;3.38;;;1.70;;
65825;SDS011;52586;-43.152;172.732;2023-03-31T12:21:09;4.35;;;1.27;;
65825;SDS011;52586;-43.152;172.732;2023-03-31T12:23:40;3.90;;;1.70;;
65825;SDS011;52586;-43.152;172.732;2023-03-31T12:26:16;4.93;;;2.33;;
65825;SDS011;52586;-43.152;172.732;2023-03-31T12:29:02;6.57;;;2.03;;
65825;SDS011;52586;-43.152;172.732;2023-03-31T12:31:44;4.35;;;2.10;;
65825;SDS011;52586;-43.152;172.732;2023-03-31T12:34:16;2.70;;;1.63;;
65825;SDS011;52586;-43.152;172.732;2023-03-31T12:36:53;3.80;;;1.83;;
65825;SDS011;52586;-43.152;172.732;2023-03-31T12:39:39;3.60;;;1.67;;
65825;SDS011;52586;-43.152;172.732;2023-03-31T12:42:31;5.97;;;1.85;;
65825;SDS011;52586;-43.152;172.732;2023-03-31T12:45:17;5.10;;;2.42;;
65825;SDS011;52586;-43.152;172.732;2023-03-31T12:48:03;3.25;;;2.33;;
65825;SDS011;52586;-43.152;172.732;2023-03-31T12:50:59;3.85;;;2.20;;
65825;SDS011;52586;-43.152;172.732;2023-03-31T12:53:38;7.97;;;2.75;;
65825;SDS011;52586;-43.152;172.732;2023-03-31T12:56:29;6.18;;;2.92;;
65825;SDS011;52586;-43.152;172.732;2023-03-31T12:59:32;4.97;;;2.70;;
65825;SDS011;52586;-43.152;172.732;2023-03-31T13:04:55;4.80;;;2.60;;
65825;SDS011;52586;-43.152;172.732;2023-03-31T13:07:36;4.82;;;2.22;;
65825;SDS011;52586;-43.152;172.732;2023-03-31T13:10:25;4.20;;;2.60;;
65825;SDS011;52586;-43.152;172.732;2023-03-31T13:13:01;5.47;;;2.70;;
65825;SDS011;52586;-43.152;172.732;2023-03-31T13:15:34;4.88;;;2.60;;
65825;SDS011;52586;-43.152;172.732;2023-03-31T13:18:05;4.55;;;2.42;;
65825;SDS011;52586;-43.152;172.732;2023-03-31T13:20:48;5.97;;;2.70;;
65825;SDS011;52586;-43.152;172.732;2023-03-31T13:23:28;5.90;;;2.13;;
65825;SDS011;52586;-43.152;172.732;2023-03-31T13:26:02;3.50;;;2.22;;
65825;SDS011;52586;-43.152;172.732;2023-03-31T13:28:35;4.90;;;2.25;;
65825;SDS011;52586;-43.152;172.732;2023-03-31T13:31:08;4.60;;;2.78;;
65825;SDS011;52586;-43.152;172.732;2023-03-31T13:33:41;4.20;;;2.45;;
65825;SDS011;52586;-43.152;172.732;2023-03-31T13:36:29;5.25;;;2.42;;
65825;SDS011;52586;-43.152;172.732;2023-03-31T13:42:39;3.95;;;2.42;;
65825;SDS011;52586;-43.152;172.732;2023-03-31T13:45:53;4.07;;;2.05;;
65825;SDS011;52586;-43.152;172.732;2023-03-31T13:48:42;3.47;;;2.40;;
65825;SDS011;52586;-43.152;172.732;2023-03-31T13:51:30;3.47;;;2.33;;
65825;SDS011;52586;-43.152;172.732;2023-03-31T13:54:21;3.53;;;2.40;;
65825;SDS011;52586;-43.152;172.732;2023-03-31T14:00:12;3.25;;;2.15;;
65825;SDS011;52586;-43.152;172.732;2023-03-31T14:03:03;3.35;;;2.33;;
65825;SDS011;52586;-43.152;172.732;2023-03-31T14:05:46;3.45;;;2.00;;
65825;SDS011;52586;-43.152;172.732;2023-03-31T14:08:31;2.80;;;2.10;;
65825;SDS011;52586;-43.152;172.732;2023-03-31T14:11:16;2.20;;;1.90;;
65825;SDS011;52586;-43.152;172.732;2023-03-31T14:14:00;4.10;;;2.33;;
65825;SDS011;52586;-43.152;172.732;2023-03-31T14:16:32;4.35;;;2.05;;
65825;SDS011;52586;-43.152;172.732;2023-03-31T14:19:10;3.25;;;1.98;;
65825;SDS011;52586;-43.152;172.732;2023-03-31T14:22:18;4.63;;;2.00;;
65825;SDS011;52586;-43.152;172.732;2023-03-31T14:25:01;3.45;;;2.13;;
65825;SDS011;52586;-43.152;172.732;2023-03-31T14:27:44;3.05;;;2.05;;
65825;SDS011;52586;-43.152;172.732;2023-03-31T14:30:26;3.13;;;2.30;;
65825;SDS011;52586;-43.152;172.732;2023-03-31T14:33:14;3.00;;;1.80;;
65825;SDS011;52586;-43.152;172.732;2023-03-31T14:35:54;2.88;;;1.80;;
65825;SDS011;52586;-43.152;172.732;2023-03-31T14:38:29;3.05;;;1.73;;
65825;SDS011;52586;-43.152;172.732;2023-03-31T14:41:02;3.38;;;2.10;;
65825;SDS011;52586;-43.152;172.732;2023-03-31T14:43:34;2.92;;;1.77;;
65825;SDS011;52586;-43.152;172.732;2023-03-31T14:46:08;2.38;;;1.75;;
65825;SDS011;52586;-43.152;172.732;2023-03-31T14:48:40;4.95;;;1.98;;
65825;SDS011;52586;-43.152;172.732;2023-03-31T14:51:14;2.58;;;1.88;;
65825;SDS011;52586;-43.152;172.732;2023-03-31T14:53:46;3.25;;;1.92;;
65825;SDS011;52586;-43.152;172.732;2023-03-31T14:56:20;2.20;;;1.60;;
65825;SDS011;52586;-43.152;172.732;2023-03-31T14:58:56;3.00;;;1.60;;
65825;SDS011;52586;-43.152;172.732;2023-03-31T15:01:28;2.38;;;1.67;;
65825;SDS011;52586;-43.152;172.732;2023-03-31T15:04:04;2.53;;;1.80;;
65825;SDS011;52586;-43.152;172.732;2023-03-31T15:06:37;3.75;;;1.83;;
65825;SDS011;52586;-43.152;172.732;2023-03-31T15:09:11;2.28;;;1.80;;
65825;SDS011;52586;-43.152;172.732;2023-03-31T15:11:52;2.55;;;1.80;;
65825;SDS011;52586;-43.152;172.732;2023-03-31T15:14:27;2.63;;;1.80;;
65825;SDS011;52586;-43.152;172.732;2023-03-31T15:16:59;2.40;;;1.35;;
65825;SDS011;52586;-43.152;172.732;2023-03-31T15:19:32;3.05;;;1.80;;
65825;SDS011;52586;-43.152;172.732;2023-03-31T15:22:07;3.17;;;1.50;;